Current Conditions (Updated 12:20am on 6/13/24)
Temperature
 64°
-1.28
64°  
64°  
0
10
20
30
40
50
60
70
80
90
100
Dew Point
58°
59°  
58°  
-20
-10
0
10
20
30
40
50
60
70
80
Wind Chill
64°
64°  
64°  
-20
-10
0
10
20
30
40
50
60
70
80
Wind Chill
Humidity
83%
83% 
83% 
0
10
20
30
40
50
60
70
80
90
100
Barometer
30.01
   Steady
30.01  
30.01  
28.00
28.30
28.60
28.90
29.20
29.50
29.80
30.10
30.40
30.70
31.00
Temperature
Dew Point
Humidity
Pressure
Wind
0mph
SSW
Daily Rain
.00
.05
.10
.15
.20
.25
.30
.35
.40
.45
.50
Rain Today
 0.00" 
Month Rain
0.00
0.20
0.40
0.60
0.80
1.00
1.20
1.40
1.60
1.80
2.00
Month Rain
 0.39" 
Year Rain
0.00
2.50
5.00
7.50
10.00
12.50
15.00
17.50
20.00
22.50
25.00
Year Rain
 23.35" 
Sun & Moon Data
Sunrise 5:36am
Sunset 8:27pm
Moonrise 12:27pm
Moonset 1:01am
Moon % 36%
Other Rain Data
Past Hour 0.00 Past 24 Hours 0.00
Past 3 Hours 0.00 Past 7 Days 0.35
Past 6 Hours 0.00
Cloud Height
1313


7 Day Forecast
NWS Forecast for Georgetown, Sussex County Airport DE
National Weather Service Forecast for: Georgetown, Sussex County Airport DE
Issued by: National Weather Service Philadelphia, PA
Updated: 10:11 pm EDT Jun 12, 2024

Georgetown,DE.
 
Overnight

Overnight: Mostly clear, with a low around 60. South wind around 5 mph.
Mostly Clear

Thursday

Thursday: Sunny, with a high near 85. South wind 5 to 10 mph.
Sunny

Thursday
Night
Thursday Night: Mostly clear, with a low around 65. South wind around 10 mph.
Mostly Clear

Friday

Friday: A slight chance of showers between 2pm and 5pm, then a slight chance of showers and thunderstorms after 5pm.  Sunny, with a high near 91. South wind 10 to 15 mph.  Chance of precipitation is 20%.
Sunny then
Slight Chance
T-storms
Friday
Night
Friday Night: A chance of showers and thunderstorms, mainly between 8pm and 2am.  Partly cloudy, with a low around 66. Southwest wind 5 to 10 mph becoming northwest after midnight.  Chance of precipitation is 50%. New rainfall amounts of less than a tenth of an inch, except higher amounts possible in thunderstorms.
Chance
T-storms then
Chance
Showers
Saturday

Saturday: Sunny, with a high near 87.
Sunny

Saturday
Night
Saturday Night: Mostly clear, with a low around 60.
Mostly Clear

Sunday

Sunday: Sunny, with a high near 83.
Sunny

Sunday
Night
Sunday Night: Mostly clear, with a low around 63.
Mostly Clear

Lo 60 °F Hi 85 °F Lo 65 °F Hi 91 °F Lo 66 °F Hi 87 °F Lo 60 °F Hi 83 °F Lo 63 °F

 

Overnight
 
Mostly clear, with a low around 60. South wind around 5 mph.
Thursday
 
Sunny, with a high near 85. South wind 5 to 10 mph.
Thursday Night
 
Mostly clear, with a low around 65. South wind around 10 mph.
Friday
 
A slight chance of showers between 2pm and 5pm, then a slight chance of showers and thunderstorms after 5pm. Sunny, with a high near 91. South wind 10 to 15 mph. Chance of precipitation is 20%.
Friday Night
 
A chance of showers and thunderstorms, mainly between 8pm and 2am. Partly cloudy, with a low around 66. Southwest wind 5 to 10 mph becoming northwest after midnight. Chance of precipitation is 50%. New rainfall amounts of less than a tenth of an inch, except higher amounts possible in thunderstorms.
Saturday
 
Sunny, with a high near 87.
Saturday Night
 
Mostly clear, with a low around 60.
Sunday
 
Sunny, with a high near 83.
Sunday Night
 
Mostly clear, with a low around 63.
Monday
 
Sunny, with a high near 91.
Monday Night
 
Mostly clear, with a low around 69.
Tuesday
 
Sunny, with a high near 93.
Tuesday Night
 
Mostly clear, with a low around 69.
Juneteenth
 
Sunny, with a high near 91.

 

Forecast from NOAA-NWS for Georgetown, Sussex County Airport DE.

Current Front Map
Current Radar
Current Cloud Map
Area Weather Current Conditions
Nearby METAR Reports

KPHL - Philadelphia, Pennsylvania
Updated: Wed, 12-Jun-2024 11:54pm EDT
Clear
Clear
 Wind from SSW
Wind: SSW 7 mph , 11 km/h
Temperature: 70°F , 21°C
Dew Point: 59°F , 15°C
Humidity: 69%
Barometer: 30.02 inHg , 1016.6 hPa
Clouds: Clear
Visibility: 10 miles , 16 km
2024/06/13 03:54 KPHL 130354Z 20006KT 10SM CLR 21/15 A3002 RMK AO2 SLP166 T02060150
KMPO - Mt. Pocono, Pennsylvania
Updated: Wed, 12-Jun-2024 11:53pm EDT
Clear
Clear
 Wind from N
Wind: N 3 mph , 6 km/h
Temperature: 50°F , 10°C
Dew Point: 46°F , 8°C
Humidity: 88%
Barometer: 30.05 inHg , 1017.6 hPa
Clouds: Clear
Visibility: 10 miles , 16 km
2024/06/13 03:53 KMPO 130353Z AUTO 36003KT 10SM CLR 10/08 A3005 RMK AO2 SLP176 T01000078
 
KACY - Atlantic City, New Jersey
Updated: Wed, 12-Jun-2024 11:54pm EDT
Clear
Clear
 Wind from SSW
Wind: SSW 7 mph , 11 km/h
Temperature: 66°F , 19°C
Dew Point: 57°F , 14°C
Humidity: 73%
Barometer: 30.03 inHg , 1016.9 hPa
Clouds: Clear
Visibility: 10 miles , 16 km
2024/06/13 03:54 KACY 130354Z 21006KT 10SM CLR 19/14 A3003 RMK AO2 SLP168 T01940139 $
KWWD - Wildwood, New Jersey
Updated: Wed, 12-Jun-2024 11:56pm EDT
Clear
Clear
 Wind from calm
Wind: Calm
Temperature: 64°F , 18°C
Dew Point: 64°F , 18°C
Humidity: 100%
Barometer: 30.04 inHg , 1017.3 hPa
Clouds: Clear
Visibility: 10 miles , 16 km
2024/06/13 03:56 KWWD 130356Z AUTO 00000KT 10SM CLR 18/18 A3004 RMK AO2 SLP174 T01830178
 
KGED - Georgetown, Delaware
Updated: Wed, 12-Jun-2024 11:54pm EDT
Clear
Clear
 Wind from calm
Wind: Calm
Temperature: 63°F , 17°C
Dew Point: 63°F , 17°C
Humidity: 100%
Barometer: 30.04 inHg , 1017.3 hPa
Clouds: Clear
Visibility: 10 miles , 16 km
2024/06/13 03:54 KGED 130354Z AUTO 00000KT 10SM CLR 17/17 A3004 RMK AO2 SLP172 T01720172 $
KDOV - Dover Afb, Delaware
Updated: Wed, 12-Jun-2024 11:55pm EDT
Clear
Clear
 Wind from S
Wind: S 3 mph , 6 km/h
Temperature: 68°F , 20°C
Dew Point: 59°F , 15°C
Humidity: 73%
Barometer: 30.01 inHg , 1016.3 hPa
Clouds: Clear
Visibility: 10 miles , 16 km
2024/06/13 03:55 KDOV 130355Z AUTO 17003KT 10SM CLR 20/15 A3001 RMK AO2 SLP166 T01950149
 
KOXB - Ocean City, Maryland
Updated: Wed, 12-Jun-2024 11:53pm EDT
Clear
Clear
 Wind from calm
Wind: Calm
Temperature: 61°F , 16°C
Dew Point: 57°F , 14°C
Humidity: 88%
Barometer: 30.05 inHg , 1017.6 hPa
Clouds: Clear
Visibility: 10 miles , 16 km
2024/06/13 03:53 KOXB 130353Z AUTO 00000KT 10SM CLR 16/14 A3005 RMK AO2 SLP174 T01610144
KSBY - Salisbury, Maryland
Updated: Wed, 12-Jun-2024 11:54pm EDT
Clear
Clear
 Wind from calm
Wind: Calm
Temperature: 63°F , 17°C
Dew Point: 57°F , 14°C
Humidity: 83%
Barometer: 30.04 inHg , 1017.3 hPa
Clouds: Clear
Visibility: 10 miles , 16 km
2024/06/13 03:54 KSBY 130354Z AUTO 00000KT 10SM CLR 17/14 A3004 RMK AO2 SLP176 T01720144
Severe Weather Map